createdAt,value
2018-01-17T00:01:00.436Z,9.02
2018-01-17T00:03:28.782Z,8.43
2018-01-17T00:05:56.311Z,8.38
2018-01-17T00:08:23.854Z,8.63
2018-01-17T00:10:51.382Z,8.65
2018-01-17T00:13:19.661Z,8.57
2018-01-17T00:15:48.083Z,9.55
2018-01-17T00:18:15.629Z,8.95
2018-01-17T00:20:43.156Z,9.90
2018-01-17T00:23:10.663Z,9.90
2018-01-17T00:25:38.208Z,8.50
2018-01-17T00:28:05.707Z,9.48
2018-01-17T00:30:33.228Z,8.85
2018-01-17T00:33:00.755Z,8.57
2018-01-17T00:35:28.262Z,9.82
2018-01-17T00:37:55.807Z,9.15
2018-01-17T00:40:23.316Z,8.98
2018-01-17T00:42:50.926Z,8.05
2018-01-17T00:45:18.440Z,9.13
2018-01-17T00:47:46.736Z,7.93
2018-01-17T00:50:14.249Z,8.93
2018-01-17T00:52:41.781Z,8.40
2018-01-17T00:55:09.344Z,9.70
2018-01-17T00:57:36.871Z,8.75
2018-01-17T01:00:04.467Z,8.63
2018-01-17T01:02:31.988Z,7.62
2018-01-17T01:04:59.503Z,9.75
2018-01-17T01:07:27.023Z,9.35
2018-01-17T01:09:55.307Z,9.15
2018-01-17T01:12:23.607Z,10.43
2018-01-17T01:14:51.160Z,8.45
2018-01-17T01:17:18.699Z,9.68
2018-01-17T01:19:47.007Z,10.05
2018-01-17T01:22:14.556Z,9.48
2018-01-17T01:24:42.071Z,9.38
2018-01-17T01:27:09.576Z,8.70
2018-01-17T01:29:37.111Z,9.30
2018-01-17T01:32:04.703Z,9.43
2018-01-17T01:34:32.267Z,8.93
2018-01-17T01:36:59.780Z,9.55
2018-01-17T01:39:27.309Z,8.52
2018-01-17T01:41:54.846Z,9.20
2018-01-17T01:44:22.404Z,9.23
2018-01-17T01:46:49.921Z,8.77
2018-01-17T01:49:17.525Z,8.35
2018-01-17T01:51:45.093Z,9.13
2018-01-17T01:54:12.620Z,8.10
2018-01-17T01:56:40.902Z,7.43
2018-01-17T01:59:09.304Z,7.10
2018-01-17T02:01:36.866Z,8.00
2018-01-17T02:04:04.401Z,7.65
2018-01-17T02:06:32.704Z,8.00
2018-01-17T02:09:00.235Z,7.68
2018-01-17T02:11:28.500Z,7.68
2018-01-17T02:13:56.023Z,7.25
2018-01-17T02:16:23.529Z,7.53
2018-01-17T02:18:51.833Z,6.60
2018-01-17T02:21:19.366Z,7.03
2018-01-17T02:23:47.770Z,6.32
2018-01-17T02:26:15.263Z,5.80
2018-01-17T02:28:42.799Z,5.45
2018-01-17T02:31:20.999Z,6.07
2018-01-17T02:33:48.512Z,6.57
2018-01-17T02:36:16.118Z,6.25
2018-01-17T02:38:43.685Z,7.07
2018-01-17T02:41:11.233Z,6.35
2018-01-17T02:43:39.504Z,5.22
2018-01-17T02:46:07.800Z,5.43
2018-01-17T02:48:35.316Z,4.45
2018-01-17T02:51:02.840Z,3.60
2018-01-17T02:53:30.356Z,3.22
2018-01-17T02:55:58.759Z,2.90
2018-01-17T02:58:26.327Z,3.22
2018-01-17T03:00:53.882Z,3.62
2018-01-17T03:03:21.440Z,3.33
2018-01-17T03:05:49.008Z,3.00
2018-01-17T03:08:16.569Z,3.28
2018-01-17T03:10:44.119Z,4.37
2018-01-17T03:13:11.683Z,3.65
2018-01-17T03:15:39.248Z,4.72
2018-01-17T03:18:06.802Z,4.72
2018-01-17T03:20:34.335Z,4.97
2018-01-17T03:23:01.932Z,5.25
2018-01-17T03:25:29.485Z,5.35
2018-01-17T03:27:57.008Z,5.60
2018-01-17T03:30:24.507Z,6.45
2018-01-17T03:32:52.068Z,5.68
2018-01-17T03:35:19.581Z,5.20
2018-01-17T03:37:47.868Z,5.30
2018-01-17T03:40:15.493Z,3.95
2018-01-17T03:42:43.117Z,4.05
2018-01-17T03:45:11.450Z,3.92
2018-01-17T03:47:38.941Z,3.58
2018-01-17T03:50:07.244Z,4.65
2018-01-17T03:52:35.031Z,4.43
2018-01-17T03:55:02.566Z,4.53
2018-01-17T03:57:30.100Z,4.37
2018-01-17T03:59:57.609Z,3.60
2018-01-17T04:02:25.143Z,3.60
2018-01-17T04:04:53.422Z,4.18
2018-01-17T04:07:20.976Z,3.47
2018-01-17T04:09:49.259Z,4.80
2018-01-17T04:12:17.597Z,3.70
2018-01-17T04:14:45.924Z,4.00
2018-01-17T04:17:13.498Z,4.32
2018-01-17T04:19:41.022Z,3.70
2018-01-17T04:22:09.320Z,3.58
2018-01-17T04:24:36.843Z,3.90
2018-01-17T04:27:04.443Z,2.85
2018-01-17T04:29:31.971Z,3.65
2018-01-17T04:32:00.244Z,3.20
2018-01-17T04:34:27.765Z,2.90
2018-01-17T04:36:55.300Z,3.40
2018-01-17T04:39:22.876Z,2.05
2018-01-17T04:41:50.423Z,2.42
2018-01-17T04:44:18.692Z,2.45
2018-01-17T04:46:46.258Z,2.22
2018-01-17T04:49:13.822Z,2.62
2018-01-17T04:51:41.380Z,2.10
2018-01-17T04:54:08.939Z,2.20
2018-01-17T04:56:36.446Z,2.30
2018-01-17T04:59:03.971Z,1.65
2018-01-17T05:01:31.516Z,2.17
2018-01-17T05:03:59.084Z,2.25
2018-01-17T05:06:26.590Z,2.00
2018-01-17T05:08:54.200Z,2.20
2018-01-17T05:11:21.763Z,2.40
2018-01-17T05:13:49.264Z,2.28
2018-01-17T05:16:16.881Z,2.00
2018-01-17T05:18:44.395Z,1.87
2018-01-17T05:21:12.733Z,1.80
2018-01-17T05:23:40.279Z,2.17
2018-01-17T05:26:07.808Z,2.08
2018-01-17T05:28:35.317Z,2.28
2018-01-17T05:31:02.840Z,2.10
2018-01-17T05:33:31.137Z,2.15
2018-01-17T05:35:58.652Z,2.25
2018-01-17T05:38:26.265Z,2.50
2018-01-17T05:40:53.820Z,2.85
2018-01-17T05:43:21.809Z,2.42
2018-01-17T05:45:50.203Z,2.40
2018-01-17T05:48:17.712Z,2.95
2018-01-17T05:50:46.003Z,2.75
2018-01-17T05:53:13.534Z,3.15
2018-01-17T05:55:42.376Z,3.25
2018-01-17T05:58:09.879Z,3.10
2018-01-17T06:00:38.204Z,3.25
2018-01-17T06:03:05.759Z,3.92
2018-01-17T06:05:33.297Z,4.15
2018-01-17T06:08:01.564Z,3.58
2018-01-17T06:10:29.151Z,4.10
2018-01-17T06:12:56.719Z,4.18
2018-01-17T06:15:24.232Z,3.83
2018-01-17T06:17:52.555Z,5.10
2018-01-17T06:20:20.114Z,5.72
2018-01-17T06:22:47.754Z,5.78
2018-01-17T06:25:15.339Z,4.93
2018-01-17T06:27:42.862Z,5.10
2018-01-17T06:30:10.870Z,5.53
2018-01-17T06:32:38.406Z,4.87
2018-01-17T06:35:05.898Z,6.55
2018-01-17T06:37:33.426Z,6.00
2018-01-17T06:40:01.698Z,5.93
2018-01-17T06:42:30.010Z,6.78
2018-01-17T06:44:57.568Z,6.82
2018-01-17T06:47:25.090Z,7.60
2018-01-17T06:49:52.597Z,6.78
2018-01-17T06:52:20.128Z,6.70
2018-01-17T06:54:48.398Z,7.00
2018-01-17T06:57:16.795Z,7.07
2018-01-17T06:59:45.072Z,7.80
2018-01-17T07:02:13.343Z,6.75
2018-01-17T07:04:41.646Z,6.50
2018-01-17T07:07:09.192Z,6.35
2018-01-17T07:09:36.727Z,6.30
2018-01-17T07:12:05.025Z,6.57
2018-01-17T07:14:33.418Z,6.25
2018-01-17T07:17:00.921Z,6.93
2018-01-17T07:19:28.581Z,6.70
2018-01-17T07:21:56.197Z,6.15
2018-01-17T07:24:23.757Z,6.55
2018-01-17T07:26:51.312Z,7.28
2018-01-17T07:29:18.879Z,7.65
2018-01-17T07:31:46.392Z,5.93
2018-01-17T07:34:13.924Z,6.57
2018-01-17T07:36:41.431Z,6.87
2018-01-17T07:39:09.722Z,6.70
2018-01-17T07:41:38.010Z,6.82
2018-01-17T07:44:05.577Z,7.00
2018-01-17T07:46:33.132Z,6.87
2018-01-17T07:49:00.696Z,6.47
2018-01-17T07:51:28.275Z,6.43
2018-01-17T07:53:55.793Z,6.90
2018-01-17T07:56:24.073Z,7.25
2018-01-17T07:58:52.362Z,8.20
2018-01-17T08:01:20.635Z,10.88
2018-01-17T08:03:49.028Z,10.13
2018-01-17T08:06:16.552Z,8.48
2018-01-17T08:08:44.050Z,6.72
2018-01-17T08:11:11.607Z,6.43
2018-01-17T08:13:39.170Z,6.32
2018-01-17T08:16:06.700Z,6.20
2018-01-17T08:18:34.201Z,4.93
2018-01-17T08:21:01.755Z,5.20
2018-01-17T08:23:29.269Z,5.72
2018-01-17T08:25:56.799Z,5.35
2018-01-17T08:28:24.330Z,6.40
2018-01-17T08:30:51.888Z,6.03
2018-01-17T08:33:19.399Z,5.55
2018-01-17T08:35:46.926Z,5.25
2018-01-17T08:38:14.473Z,5.90
2018-01-17T08:40:42.037Z,5.68
2018-01-17T08:43:09.560Z,4.90
2018-01-17T08:45:37.156Z,5.95
2018-01-17T08:48:04.658Z,5.60
2018-01-17T08:50:32.270Z,6.10
2018-01-17T08:52:59.837Z,5.43
2018-01-17T08:55:27.511Z,4.87
2018-01-17T08:57:55.174Z,5.03
2018-01-17T09:00:23.643Z,5.18
2018-01-17T09:02:51.532Z,4.65
2018-01-17T09:05:19.030Z,3.75
2018-01-17T09:07:46.857Z,3.90
2018-01-17T09:10:14.406Z,3.62
2018-01-17T09:12:42.047Z,3.70
2018-01-17T09:15:10.339Z,3.85
2018-01-17T09:17:37.866Z,3.33
2018-01-17T09:20:06.412Z,4.15
2018-01-17T09:22:34.078Z,3.67
2018-01-17T09:25:01.628Z,3.28
2018-01-17T09:27:29.155Z,3.55
2018-01-17T09:29:56.882Z,3.03
2018-01-17T09:32:25.192Z,2.97
2018-01-17T09:34:53.471Z,3.45
2018-01-17T09:37:21.003Z,3.78
2018-01-17T09:39:48.524Z,3.00
2018-01-17T09:42:16.042Z,2.90
2018-01-17T09:44:44.317Z,3.72
2018-01-17T09:47:12.835Z,3.35
2018-01-17T09:49:40.363Z,3.50
2018-01-17T09:52:07.884Z,3.85
2018-01-17T09:54:35.498Z,3.15
2018-01-17T09:57:03.081Z,3.53
2018-01-17T09:59:30.768Z,3.35
2018-01-17T10:01:58.415Z,6.00
2018-01-17T10:04:26.609Z,7.68
2018-01-17T10:06:54.149Z,3.72
2018-01-17T10:09:21.690Z,7.97
2018-01-17T10:11:49.203Z,6.05
2018-01-17T10:14:16.747Z,9.95
2018-01-17T10:16:44.259Z,8.57
2018-01-17T10:19:12.645Z,6.35
2018-01-17T10:21:40.168Z,6.20
2018-01-17T10:24:07.770Z,5.45
2018-01-17T10:26:36.152Z,5.55
2018-01-17T10:29:03.829Z,5.68
2018-01-17T10:31:31.342Z,6.20
2018-01-17T10:33:59.653Z,4.47
2018-01-17T10:36:27.231Z,4.15
2018-01-17T10:38:54.761Z,4.12
2018-01-17T10:41:23.170Z,4.30
2018-01-17T10:43:50.724Z,4.57
2018-01-17T10:46:18.385Z,4.35
2018-01-17T10:48:45.892Z,4.50
2018-01-17T10:51:13.407Z,4.93
2018-01-17T10:53:40.909Z,4.37
2018-01-17T10:56:08.430Z,4.53
2018-01-17T10:58:35.998Z,4.10
2018-01-17T11:01:03.553Z,4.22
2018-01-17T11:03:31.092Z,4.03
2018-01-17T11:05:58.690Z,4.60
2018-01-17T11:08:26.209Z,4.32
2018-01-17T11:10:53.744Z,4.60
2018-01-17T11:13:22.174Z,4.50
2018-01-17T11:15:49.953Z,6.20
2018-01-17T11:18:17.456Z,6.87
2018-01-17T11:20:45.792Z,6.87
2018-01-17T11:23:13.308Z,4.37
2018-01-17T11:25:40.896Z,3.83
2018-01-17T11:28:08.422Z,4.95
2018-01-17T11:30:36.776Z,6.18
2018-01-17T11:33:04.386Z,4.85
2018-01-17T11:35:31.966Z,4.35
2018-01-17T11:37:59.484Z,4.57
2018-01-17T11:40:27.903Z,4.62
2018-01-17T11:42:55.455Z,4.87
2018-01-17T11:45:23.045Z,4.62
2018-01-17T11:47:50.579Z,5.05
2018-01-17T11:50:18.105Z,5.22
2018-01-17T11:52:45.693Z,5.65
2018-01-17T11:55:13.255Z,4.83
2018-01-17T11:57:40.811Z,4.80
2018-01-17T12:00:08.638Z,3.90
2018-01-17T12:02:36.947Z,3.87
2018-01-17T12:05:04.452Z,4.90
2018-01-17T12:07:31.975Z,4.20
2018-01-17T12:09:59.490Z,4.15
2018-01-17T12:12:27.028Z,5.65
2018-01-17T12:14:54.580Z,4.65
2018-01-17T12:17:22.129Z,4.35
2018-01-17T12:19:49.788Z,3.90
2018-01-17T12:22:17.333Z,4.40
2018-01-17T12:24:45.217Z,4.32
2018-01-17T12:27:12.859Z,4.78
2018-01-17T12:29:40.375Z,3.60
2018-01-17T12:32:07.963Z,4.05
2018-01-17T12:34:36.256Z,7.12
2018-01-17T12:37:03.861Z,4.30
2018-01-17T12:39:31.392Z,4.70
2018-01-17T12:41:58.951Z,4.45
2018-01-17T12:44:26.465Z,4.85
2018-01-17T12:46:54.086Z,4.90
2018-01-17T12:49:21.641Z,4.57
2018-01-17T12:51:49.164Z,4.75
2018-01-17T12:54:17.667Z,3.90
2018-01-17T12:56:45.230Z,4.40
2018-01-17T12:59:12.855Z,4.10
2018-01-17T13:01:40.451Z,4.07
2018-01-17T13:04:08.026Z,3.35
2018-01-17T13:06:35.545Z,4.05
2018-01-17T13:09:03.855Z,4.07
2018-01-17T13:11:31.402Z,4.32
2018-01-17T13:13:59.066Z,4.78
2018-01-17T13:16:27.435Z,4.03
2018-01-17T13:18:55.874Z,3.85
2018-01-17T13:21:23.390Z,3.53
2018-01-17T13:23:51.006Z,3.65
2018-01-17T13:26:19.336Z,5.12
2018-01-17T13:28:46.899Z,8.50
2018-01-17T13:31:14.460Z,8.20
2018-01-17T13:33:42.192Z,7.72
2018-01-17T13:36:10.763Z,7.28
2018-01-17T13:38:38.312Z,6.00
2018-01-17T13:41:05.868Z,12.98
2018-01-17T13:43:33.399Z,7.45
2018-01-17T13:46:01.107Z,7.12
2018-01-17T13:48:28.626Z,3.72
2018-01-17T13:50:56.420Z,5.95
2018-01-17T13:53:23.951Z,5.45
2018-01-17T13:55:51.486Z,4.22
2018-01-17T13:58:19.074Z,4.37
2018-01-17T14:00:46.956Z,3.85
2018-01-17T14:03:14.540Z,3.97
2018-01-17T14:05:42.267Z,3.58
2018-01-17T14:08:09.806Z,4.00
2018-01-17T14:10:37.490Z,3.90
2018-01-17T14:13:05.048Z,4.18
2018-01-17T14:15:32.581Z,4.45
2018-01-17T14:18:00.931Z,3.72
2018-01-17T14:20:29.265Z,4.40
2018-01-17T14:22:56.836Z,4.43
2018-01-17T14:25:24.380Z,4.80
2018-01-17T14:27:52.014Z,4.43
2018-01-17T14:30:20.306Z,4.32
2018-01-17T14:32:47.832Z,4.82
2018-01-17T14:35:15.424Z,4.85
2018-01-17T14:37:43.739Z,4.85
2018-01-17T14:40:11.314Z,4.40
2018-01-17T14:42:38.817Z,4.03
2018-01-17T14:45:07.137Z,4.28
2018-01-17T14:47:34.692Z,5.20
2018-01-17T14:50:02.237Z,4.53
2018-01-17T14:52:29.803Z,5.00
2018-01-17T14:54:57.568Z,5.05
2018-01-17T14:57:25.159Z,3.78
2018-01-17T14:59:52.791Z,4.70
2018-01-17T15:02:20.343Z,4.35
2018-01-17T15:04:47.857Z,4.53
2018-01-17T15:07:15.405Z,4.07
2018-01-17T15:09:42.958Z,3.97
2018-01-17T15:12:10.567Z,3.80
2018-01-17T15:14:39.084Z,4.18
2018-01-17T15:17:06.627Z,3.87
2018-01-17T15:19:34.248Z,3.72
2018-01-17T15:22:01.821Z,3.50
2018-01-17T15:24:29.736Z,3.60
2018-01-17T15:26:57.418Z,3.90
2018-01-17T15:29:24.945Z,3.72
2018-01-17T15:31:52.590Z,4.12
2018-01-17T15:34:20.166Z,4.10
2018-01-17T15:36:47.708Z,10.68
2018-01-17T15:39:16.005Z,19.37
2018-01-17T15:41:43.570Z,8.73
2018-01-17T15:44:11.088Z,4.18
2018-01-17T15:46:38.805Z,3.33
2018-01-17T15:49:06.346Z,3.05
2018-01-17T15:51:34.029Z,3.45
2018-01-17T15:54:01.961Z,3.70
2018-01-17T15:56:30.238Z,3.00
2018-01-17T15:58:58.519Z,3.10
2018-01-17T16:01:26.798Z,2.80
2018-01-17T16:03:54.480Z,3.20
2018-01-17T16:06:22.794Z,3.05
2018-01-17T16:08:50.350Z,2.78
2018-01-17T16:11:18.806Z,2.70
2018-01-17T16:13:46.480Z,3.10
2018-01-17T16:16:14.745Z,3.33
2018-01-17T16:18:42.351Z,3.05
2018-01-17T16:21:09.962Z,2.83
2018-01-17T16:23:37.560Z,2.85
2018-01-17T16:26:05.065Z,3.28
2018-01-17T16:28:33.456Z,2.85
2018-01-17T16:31:01.908Z,3.15
2018-01-17T16:33:29.723Z,3.37
2018-01-17T16:35:57.973Z,3.40
2018-01-17T16:38:26.491Z,3.10
2018-01-17T16:40:54.908Z,3.00
2018-01-17T16:43:22.483Z,3.55
2018-01-17T16:45:50.907Z,3.20
2018-01-17T16:48:18.579Z,3.42
2018-01-17T16:50:46.443Z,4.10
2018-01-17T16:53:14.362Z,3.20
2018-01-17T16:55:43.212Z,2.95
2018-01-17T16:58:11.283Z,3.03
2018-01-17T17:00:39.885Z,3.00
2018-01-17T17:03:07.759Z,2.90
2018-01-17T17:05:35.411Z,4.05
2018-01-17T17:08:02.945Z,3.28
2018-01-17T17:10:30.627Z,3.12
2018-01-17T17:12:58.471Z,4.00
2018-01-17T17:15:26.036Z,3.10
2018-01-17T17:17:53.585Z,3.67
2018-01-17T17:20:21.159Z,3.20
2018-01-17T17:22:48.706Z,2.80
2018-01-17T17:25:16.619Z,2.47
2018-01-17T17:27:44.563Z,2.45
2018-01-17T17:30:12.122Z,2.70
2018-01-17T17:32:39.628Z,2.40
2018-01-17T17:35:07.172Z,2.25
2018-01-17T17:37:35.392Z,1.92
2018-01-17T17:40:03.688Z,2.20
2018-01-17T17:42:31.221Z,2.28
2018-01-17T17:44:59.593Z,2.30
2018-01-17T17:47:28.178Z,2.28
2018-01-17T17:49:56.534Z,2.30
2018-01-17T17:52:24.256Z,2.28
2018-01-17T17:54:51.941Z,2.08
2018-01-17T17:57:19.498Z,2.42
2018-01-17T17:59:47.381Z,2.33
2018-01-17T18:02:14.907Z,2.50
2018-01-17T18:04:42.485Z,2.12
2018-01-17T18:07:10.095Z,1.98
2018-01-17T18:09:38.490Z,2.40
2018-01-17T18:12:06.889Z,2.67
2018-01-17T18:14:35.208Z,2.67
2018-01-17T18:17:02.954Z,2.03
2018-01-17T18:19:30.531Z,2.40
2018-01-17T18:21:58.174Z,2.50
2018-01-17T18:24:25.703Z,2.40
2018-01-17T18:26:53.354Z,2.40
2018-01-17T18:29:21.624Z,2.90
2018-01-17T18:31:49.217Z,2.10
2018-01-17T18:34:16.745Z,2.90
2018-01-17T18:36:45.170Z,2.53
2018-01-17T18:39:12.772Z,3.20
2018-01-17T18:41:40.888Z,4.15
2018-01-17T18:44:08.981Z,3.80
2018-01-17T18:46:36.760Z,3.45
2018-01-17T18:49:04.515Z,3.90
2018-01-17T18:51:32.366Z,2.90
2018-01-17T18:54:00.460Z,3.53
2018-01-17T18:56:28.291Z,3.03
2018-01-17T18:58:55.883Z,3.70
2018-01-17T19:01:23.493Z,3.05
2018-01-17T19:03:52.043Z,3.30
2018-01-17T19:06:19.818Z,3.47
2018-01-17T19:08:48.571Z,3.47
2018-01-17T19:11:16.343Z,3.80
2018-01-17T19:13:45.092Z,2.95
2018-01-17T19:16:13.398Z,4.05
2018-01-17T19:18:41.102Z,3.00
2018-01-17T19:21:08.738Z,3.50
2018-01-17T19:23:37.526Z,3.25
2018-01-17T19:26:05.334Z,3.75
2018-01-17T19:28:32.944Z,3.05
2018-01-17T19:31:00.783Z,4.05
2018-01-17T19:33:28.375Z,4.12
2018-01-17T19:35:55.893Z,3.60
2018-01-17T19:38:23.465Z,3.95
2018-01-17T19:40:51.800Z,3.75
2018-01-17T19:43:19.349Z,3.67
2018-01-17T19:45:46.887Z,4.97
2018-01-17T19:48:14.427Z,3.35
2018-01-17T19:50:42.715Z,2.95
2018-01-17T19:53:10.259Z,3.00
2018-01-17T19:55:38.575Z,2.92
2018-01-17T19:58:06.111Z,3.42
2018-01-17T20:00:34.432Z,2.85
2018-01-17T20:03:01.993Z,3.12
2018-01-17T20:05:29.580Z,4.00
2018-01-17T20:07:57.115Z,3.53
2018-01-17T20:10:24.753Z,3.62
2018-01-17T20:12:52.367Z,3.65
2018-01-17T20:15:19.952Z,4.75
2018-01-17T20:17:48.244Z,4.15
2018-01-17T20:20:15.788Z,4.07
2018-01-17T20:22:49.834Z,4.70
2018-01-17T20:25:18.196Z,4.47
2018-01-17T20:27:45.762Z,5.65
2018-01-17T20:30:14.053Z,4.68
2018-01-17T20:32:42.026Z,4.82
2018-01-17T20:35:09.637Z,4.65
2018-01-17T20:37:37.960Z,4.80
2018-01-17T20:40:05.527Z,5.03
2018-01-17T20:42:33.289Z,6.15
2018-01-17T20:45:00.823Z,5.70
2018-01-17T20:47:28.364Z,5.72
2018-01-17T20:49:56.685Z,4.65
2018-01-17T20:52:24.261Z,4.50
2018-01-17T20:54:51.832Z,3.60
2018-01-17T20:57:19.359Z,4.22
2018-01-17T20:59:47.032Z,3.60
2018-01-17T21:02:14.638Z,3.00
2018-01-17T21:04:42.152Z,2.92
2018-01-17T21:07:09.695Z,3.45
2018-01-17T21:09:37.580Z,3.58
2018-01-17T21:12:05.242Z,2.70
2018-01-17T21:14:32.815Z,3.00
2018-01-17T21:17:01.833Z,3.28
2018-01-17T21:19:29.402Z,2.67
2018-01-17T21:21:57.126Z,2.80
2018-01-17T21:24:24.629Z,2.50
2018-01-17T21:26:52.167Z,3.00
2018-01-17T21:29:19.683Z,3.22
2018-01-17T21:31:48.907Z,2.85
2018-01-17T21:34:17.601Z,2.97
2018-01-17T21:36:45.116Z,3.00
2018-01-17T21:39:13.541Z,2.90
2018-01-17T21:41:41.076Z,2.95
2018-01-17T21:44:14.481Z,2.92
2018-01-17T21:46:42.007Z,3.30
2018-01-17T21:49:10.537Z,2.95
2018-01-17T21:51:38.088Z,3.08
2018-01-17T21:54:05.653Z,3.30
2018-01-17T21:56:33.313Z,4.43
2018-01-17T21:59:00.864Z,4.00
2018-01-17T22:01:28.393Z,4.78
2018-01-17T22:03:56.688Z,4.40
2018-01-17T22:06:24.967Z,4.70
2018-01-17T22:08:52.659Z,5.28
2018-01-17T22:11:20.201Z,4.82
2018-01-17T22:13:47.814Z,6.12
2018-01-17T22:16:15.365Z,5.55
2018-01-17T22:18:42.992Z,5.15
2018-01-17T22:21:10.545Z,6.80
2018-01-17T22:23:38.101Z,6.15
2018-01-17T22:26:05.620Z,6.87
2018-01-17T22:28:34.655Z,5.90
2018-01-17T22:31:02.162Z,5.72
2018-01-17T22:33:29.696Z,6.05
2018-01-17T22:35:57.211Z,6.55
2018-01-17T22:38:25.621Z,6.15
2018-01-17T22:40:53.201Z,6.37
2018-01-17T22:43:21.174Z,6.82
2018-01-17T22:45:48.811Z,5.53
2018-01-17T22:48:16.358Z,6.10
2018-01-17T22:50:44.656Z,6.20
2018-01-17T22:53:12.420Z,6.60
2018-01-17T22:55:40.874Z,5.43
2018-01-17T22:58:09.155Z,5.75
2018-01-17T23:00:37.456Z,7.10
2018-01-17T23:03:05.809Z,5.35
2018-01-17T23:05:34.138Z,5.75
2018-01-17T23:08:01.981Z,6.55
2018-01-17T23:10:29.530Z,6.18
2018-01-17T23:12:57.053Z,7.62
2018-01-17T23:15:25.315Z,5.32
2018-01-17T23:17:52.833Z,6.47
2018-01-17T23:20:21.968Z,5.57
2018-01-17T23:22:49.504Z,6.05
2018-01-17T23:25:21.036Z,5.95
2018-01-17T23:27:48.610Z,6.68
2018-01-17T23:30:16.185Z,5.15
2018-01-17T23:32:43.739Z,5.93
2018-01-17T23:35:11.335Z,7.00
2018-01-17T23:37:38.999Z,6.90
2018-01-17T23:40:06.659Z,7.30
2018-01-17T23:42:34.805Z,5.43
2018-01-17T23:45:02.392Z,6.10
2018-01-17T23:47:30.028Z,5.43
2018-01-17T23:49:57.538Z,5.43
2018-01-17T23:52:25.068Z,5.97
2018-01-17T23:54:52.719Z,5.05
2018-01-17T23:57:20.268Z,6.57
2018-01-17T23:59:48.495Z,5.12
